Time;durP1;ratioP1;P1;durP2;ratioP2;P2;SDS_P1;SDS_P2;PMS_P1;PMS_P2;Temp;Humidity;BMP_temperature;BMP_pressure;BME280_temperature;BME280_humidity;BME280_pressure;Samples;Min_cycle;Max_cycle;Signal;HPM_P1;HPM_P2
2021/11/09 00:02:12;;;;;;;13.50;7.40;;;8.60;98.70;;;;;;8385040;28;20197;-79
2021/11/09 00:06:24;;;;;;;15.60;6.53;;;8.50;98.70;;;;;;8392320;28;20596;-78
2021/11/09 00:10:28;;;;;;;11.93;5.93;;;8.50;98.80;;;;;;8383089;28;20241;-77
2021/11/09 00:14:28;;;;;;;12.30;7.73;;;8.40;98.90;;;;;;8393665;28;20442;-79
2021/11/09 00:18:30;;;;;;;11.30;7.57;;;8.30;98.90;;;;;;8397325;28;20446;-79
2021/11/09 00:22:31;;;;;;;14.63;7.30;;;8.20;98.90;;;;;;8376026;28;20473;-79
2021/11/09 00:26:32;;;;;;;10.87;7.27;;;8.00;98.80;;;;;;8382692;28;20439;-79
2021/11/09 00:30:33;;;;;;;12.63;6.20;;;8.00;98.90;;;;;;8366371;28;20212;-77
2021/11/09 00:34:35;;;;;;;13.73;6.70;;;7.90;99.00;;;;;;8382821;28;20844;-77
2021/11/09 00:38:36;;;;;;;15.20;7.57;;;7.70;99.10;;;;;;8363419;28;20429;-78
2021/11/09 00:42:37;;;;;;;11.93;7.50;;;7.60;99.30;;;;;;8363101;28;20461;-77
2021/11/09 00:46:38;;;;;;;17.83;7.67;;;7.60;99.50;;;;;;8367256;28;20210;-78
2021/11/09 00:50:40;;;;;;;10.50;6.13;;;7.60;99.60;;;;;;8384118;28;20617;-78
2021/11/09 00:54:41;;;;;;;13.93;5.80;;;7.60;99.70;;;;;;8369330;28;20551;-77
2021/11/09 00:58:42;;;;;;;12.70;6.33;;;7.60;99.50;;;;;;8367694;28;21018;-79
2021/11/09 01:02:43;;;;;;;10.80;5.70;;;7.50;99.30;;;;;;8358448;28;20667;-79
2021/11/09 01:06:43;;;;;;;17.07;6.17;;;7.40;99.20;;;;;;8356707;28;20197;-77
2021/11/09 01:10:50;;;;;;;11.97;6.00;;;7.30;99.10;;;;;;8381583;28;20473;-78
2021/11/09 01:14:50;;;;;;;24.53;7.20;;;7.20;99.10;;;;;;8388979;28;20262;-78
2021/11/09 01:18:55;;;;;;;11.40;6.03;;;7.20;99.00;;;;;;8384845;28;20440;-79
2021/11/09 01:22:58;;;;;;;13.13;6.60;;;7.10;99.10;;;;;;8383597;28;20179;-77
2021/11/09 01:26:59;;;;;;;17.23;7.60;;;7.00;99.20;;;;;;8369944;28;21093;-78
2021/11/09 01:31:00;;;;;;;20.97;5.67;;;7.00;99.30;;;;;;8384221;28;20465;-79
2021/11/09 01:35:01;;;;;;;10.20;5.80;;;6.90;99.20;;;;;;8369469;28;20587;-78
2021/11/09 01:39:04;;;;;;;8.30;5.47;;;6.80;99.10;;;;;;8373273;28;20441;-77
2021/11/09 01:43:06;;;;;;;9.43;5.40;;;6.70;99.10;;;;;;8375642;28;20510;-77
2021/11/09 01:47:06;;;;;;;14.93;5.07;;;6.70;99.10;;;;;;8389641;28;20456;-78
2021/11/09 01:51:11;;;;;;;18.47;5.87;;;6.60;99.10;;;;;;8372931;28;20868;-78
2021/11/09 01:55:15;;;;;;;11.60;6.00;;;6.50;99.10;;;;;;8374210;28;20269;-78
2021/11/09 01:59:16;;;;;;;12.70;5.90;;;6.40;99.20;;;;;;8409160;28;20441;-77
2021/11/09 02:03:17;;;;;;;25.87;7.77;;;6.30;99.20;;;;;;8394827;28;20548;-79
2021/11/09 02:07:18;;;;;;;17.77;6.07;;;6.30;99.30;;;;;;8395509;28;20187;-78
2021/11/09 02:11:20;;;;;;;15.30;6.47;;;6.20;99.30;;;;;;8392636;28;20476;-77
2021/11/09 02:15:21;;;;;;;14.30;6.00;;;6.10;99.20;;;;;;8370179;28;20466;-77
2021/11/09 02:19:22;;;;;;;17.60;5.43;;;6.00;99.20;;;;;;8369418;28;20542;-77
2021/11/09 02:23:25;;;;;;;10.97;5.33;;;6.00;99.30;;;;;;8390382;28;20441;-80
2021/11/09 02:27:25;;;;;;;12.97;5.00;;;5.90;99.20;;;;;;8374654;28;20191;-77
2021/11/09 02:31:30;;;;;;;7.07;5.57;;;5.90;99.30;;;;;;8370232;28;20555;-77
2021/11/09 02:35:30;;;;;;;11.90;5.70;;;5.80;99.20;;;;;;8367438;28;20481;-78
2021/11/09 02:39:31;;;;;;;11.00;6.60;;;5.80;99.30;;;;;;8384927;28;20444;-78
2021/11/09 02:43:32;;;;;;;18.90;6.53;;;5.80;99.40;;;;;;8389154;28;20193;-78
2021/11/09 02:48:14;;;;;;;11.07;6.77;;;5.70;99.40;;;;;;8372856;28;20194;-78
2021/11/09 02:52:15;;;;;;;8.40;5.63;;;5.60;99.40;;;;;;8360709;28;20468;-78
2021/11/09 02:56:22;;;;;;;12.33;6.67;;;5.60;99.40;;;;;;8388694;28;20456;-77
2021/11/09 03:00:28;;;;;;;6.30;4.97;;;5.50;99.40;;;;;;8367195;28;20514;-80
2021/11/09 03:13:10;;;;;;;15.53;5.90;;;5.40;99.50;;;;;;8382513;28;20437;-77
2021/11/09 03:17:19;;;;;;;7.37;4.20;;;5.40;99.60;;;;;;8374867;28;20515;-78
2021/11/09 03:39:59;;;;;;;7.10;5.10;;;5.30;99.50;;;;;;8389749;28;20174;-78
2021/11/09 03:47:20;;;;;;;12.40;6.53;;;6.40;99.90;;;;;;8385845;28;20472;-78
2021/11/09 03:51:21;;;;;;;22.90;7.57;;;6.50;99.90;;;;;;8387355;28;20501;-78
2021/11/09 03:55:40;;;;;;;33.27;7.60;;;6.50;99.90;;;;;;8381693;28;20800;-77
2021/11/09 04:12:03;;;;;;;11.73;5.63;;;6.30;99.70;;;;;;8380234;28;21171;-78
2021/11/09 04:29:21;;;;;;;10.40;5.10;;;5.80;99.10;;;;;;8385698;28;20437;-78
2021/11/09 05:11:43;;;;;;;18.00;7.40;;;5.50;99.90;;;;;;8394174;28;20467;-78
2021/11/09 05:15:44;;;;;;;22.77;7.63;;;5.70;99.90;;;;;;8387589;28;20610;-78
2021/11/09 05:19:45;;;;;;;14.70;7.57;;;6.10;99.90;;;;;;8381193;28;20445;-78
2021/11/09 05:23:46;;;;;;;10.60;6.67;;;6.30;99.90;;;;;;8385898;28;20715;-78
2021/11/09 05:27:47;;;;;;;19.30;5.87;;;6.60;99.90;;;;;;8386921;28;20448;-77
2021/11/09 05:31:47;;;;;;;15.30;4.83;;;6.80;99.90;;;;;;8380183;28;20210;-78
2021/11/09 05:35:50;;;;;;;16.77;5.03;;;7.00;99.90;;;;;;8377421;28;20441;-78
2021/11/09 05:39:54;;;;;;;8.50;5.83;;;7.20;99.90;;;;;;8381098;28;20187;-77
2021/11/09 05:43:54;;;;;;;8.67;5.47;;;7.30;99.90;;;;;;8382097;28;20541;-78
2021/11/09 05:47:56;;;;;;;12.23;5.53;;;7.40;99.80;;;;;;8373753;28;20438;-77
2021/11/09 05:51:56;;;;;;;8.53;4.93;;;7.50;99.50;;;;;;8393664;28;20219;-78
2021/11/09 05:55:57;;;;;;;14.10;6.27;;;7.50;99.20;;;;;;8387906;28;20438;-78
2021/11/09 05:59:58;;;;;;;15.37;5.30;;;7.50;99.00;;;;;;8383908;28;20267;-77
2021/11/09 06:03:58;;;;;;;10.10;4.00;;;7.50;98.80;;;;;;8378831;28;20235;-77
2021/11/09 06:07:59;;;;;;;6.80;5.30;;;7.60;98.60;;;;;;8375128;28;20223;-78
2021/11/09 06:12:00;;;;;;;13.83;4.17;;;7.60;98.30;;;;;;8389570;28;20218;-78
2021/11/09 06:16:01;;;;;;;13.50;5.03;;;7.60;98.20;;;;;;8371490;28;20196;-78
2021/11/09 06:20:01;;;;;;;11.20;4.90;;;7.50;98.00;;;;;;8393379;28;20205;-76
2021/11/09 06:24:03;;;;;;;9.00;4.73;;;7.50;97.80;;;;;;8367776;28;20316;-77
2021/11/09 06:28:05;;;;;;;13.80;5.17;;;7.40;97.80;;;;;;8368893;28;20179;-77
2021/11/09 06:32:06;;;;;;;6.57;5.30;;;7.40;97.80;;;;;;8359068;28;20504;-77
2021/11/09 06:36:07;;;;;;;7.80;4.80;;;7.30;97.80;;;;;;8372018;28;20657;-77
2021/11/09 06:40:08;;;;;;;15.80;4.93;;;7.30;97.90;;;;;;8394605;28;20457;-79
2021/11/09 06:44:09;;;;;;;7.47;4.97;;;7.20;97.90;;;;;;8400915;28;20297;-78
2021/11/09 06:48:11;;;;;;;13.00;5.30;;;7.10;97.90;;;;;;8393419;28;20449;-77
2021/11/09 06:52:13;;;;;;;12.80;6.10;;;7.10;98.00;;;;;;8396082;28;20221;-77
2021/11/09 06:56:14;;;;;;;11.50;4.77;;;7.10;98.00;;;;;;8390666;28;20444;-77
2021/11/09 07:00:17;;;;;;;9.87;5.43;;;7.10;98.00;;;;;;8373470;28;20480;-78
2021/11/09 07:04:18;;;;;;;7.63;4.87;;;7.10;98.00;;;;;;8386898;28;20484;-77
2021/11/09 07:08:19;;;;;;;11.10;5.50;;;7.20;98.00;;;;;;8373212;28;20437;-78
2021/11/09 07:12:19;;;;;;;7.03;4.30;;;7.20;98.00;;;;;;8378952;28;20215;-78
2021/11/09 07:16:20;;;;;;;9.47;5.27;;;7.30;97.90;;;;;;8366403;28;20331;-78
2021/11/09 07:20:22;;;;;;;6.63;4.27;;;7.50;97.70;;;;;;8383433;28;21301;-77
2021/11/09 07:24:23;;;;;;;8.87;4.90;;;7.60;97.40;;;;;;8361993;28;20185;-78
2021/11/09 07:28:23;;;;;;;12.80;5.37;;;7.70;97.20;;;;;;8364210;28;21003;-78
2021/11/09 07:32:25;;;;;;;6.00;5.40;;;7.80;97.10;;;;;;8385030;28;20470;-77
2021/11/09 07:36:26;;;;;;;11.33;4.37;;;7.90;97.00;;;;;;8386536;28;20540;-78
2021/11/09 07:40:27;;;;;;;8.17;6.47;;;8.00;97.00;;;;;;8363265;28;20449;-77
2021/11/09 07:44:27;;;;;;;8.33;5.27;;;8.00;97.20;;;;;;8388447;28;20455;-78
2021/11/09 07:48:28;;;;;;;11.40;4.97;;;8.40;98.00;;;;;;8377789;28;20427;-77
2021/11/09 07:52:29;;;;;;;18.63;4.07;;;9.40;96.80;;;;;;8379303;28;20214;-78
2021/11/09 07:56:32;;;;;;;8.07;4.50;;;10.60;94.50;;;;;;8401092;28;20436;-78
2021/11/09 08:00:35;;;;;;;9.50;4.40;;;11.70;92.50;;;;;;8389124;28;20290;-77
2021/11/09 08:08:53;;;;;;;12.97;4.70;;;13.20;88.80;;;;;;8380798;28;20959;-78
2021/11/09 08:12:53;;;;;;;4.73;4.23;;;13.80;87.90;;;;;;8377327;28;20238;-78
2021/11/09 08:16:54;;;;;;;5.63;3.73;;;14.60;85.50;;;;;;8376879;28;21010;-77
2021/11/09 08:20:55;;;;;;;7.10;3.10;;;15.30;82.30;;;;;;8389157;28;20210;-79
2021/11/09 08:24:56;;;;;;;11.90;4.47;;;15.80;80.40;;;;;;8374085;28;20435;-79
2021/11/09 08:29:02;;;;;;;13.53;4.70;;;16.40;78.20;;;;;;8406204;28;20217;-78
2021/11/09 08:33:04;;;;;;;15.23;5.80;;;17.00;77.40;;;;;;8367620;28;21213;-78
2021/11/09 08:37:05;;;;;;;8.80;4.77;;;17.50;77.70;;;;;;8381147;28;20448;-78
2021/11/09 08:41:08;;;;;;;6.80;3.70;;;17.80;76.30;;;;;;8382190;28;20441;-78
2021/11/09 08:45:24;;;;;;;9.90;3.90;;;18.00;75.90;;;;;;8380683;28;20781;-78
2021/11/09 08:49:28;;;;;;;4.17;3.50;;;18.10;75.30;;;;;;8382409;28;20468;-78
2021/11/09 08:53:34;;;;;;;6.63;3.97;;;18.10;74.70;;;;;;8381570;28;20445;-78
2021/11/09 09:06:33;;;;;;;13.43;3.70;;;18.80;72.60;;;;;;8223437;28;20546;-78
2021/11/09 09:10:34;;;;;;;8.20;3.70;;;18.90;72.40;;;;;;8276989;28;20480;-79
2021/11/09 09:14:35;;;;;;;9.60;3.80;;;19.10;72.50;;;;;;8357541;28;20630;-79
2021/11/09 09:18:35;;;;;;;10.33;2.70;;;19.20;71.40;;;;;;8374539;28;20585;-77
2021/11/09 09:22:42;;;;;;;9.63;3.13;;;19.10;71.10;;;;;;8382189;28;20195;-79
2021/11/09 09:27:02;;;;;;;7.97;3.70;;;18.80;71.30;;;;;;8381174;28;20175;-78
2021/11/09 09:52:51;;;;;;;3.97;2.77;;;18.10;72.90;;;;;;8376138;28;20449;-77
2021/11/09 09:56:52;;;;;;;7.43;2.77;;;18.00;72.90;;;;;;8378593;28;20519;-78
2021/11/09 10:00:53;;;;;;;4.53;2.87;;;17.80;73.00;;;;;;8374222;28;20526;-77
2021/11/09 10:05:13;;;;;;;3.47;3.13;;;17.50;73.90;;;;;;8367590;28;20472;-77
2021/11/09 10:09:34;;;;;;;5.30;2.60;;;17.40;74.70;;;;;;8363152;28;20186;-77
2021/11/09 10:13:41;;;;;;;5.17;3.03;;;17.50;74.60;;;;;;8385984;28;21757;-78
2021/11/09 10:17:45;;;;;;;3.43;2.60;;;17.70;75.00;;;;;;8367896;28;20552;-77
2021/11/09 10:21:45;;;;;;;3.90;2.80;;;17.50;74.10;;;;;;8378999;28;20460;-78
2021/11/09 10:25:49;;;;;;;4.67;2.57;;;17.30;74.60;;;;;;8384550;28;20424;-77
2021/11/09 10:29:52;;;;;;;4.73;2.80;;;17.10;74.40;;;;;;8358167;28;20198;-80
2021/11/09 10:33:54;;;;;;;7.70;2.90;;;16.90;75.00;;;;;;8389191;28;20790;-78
2021/11/09 10:37:57;;;;;;;4.70;4.03;;;17.00;75.30;;;;;;8375667;28;20856;-76
2021/11/09 10:42:09;;;;;;;6.30;3.23;;;16.80;75.20;;;;;;8370588;28;20451;-76
2021/11/09 10:46:29;;;;;;;6.23;3.43;;;16.70;76.20;;;;;;8389018;28;20479;-78
2021/11/09 10:50:44;;;;;;;8.80;2.83;;;16.70;75.90;;;;;;8380590;28;20472;-78
2021/11/09 10:54:59;;;;;;;4.60;3.60;;;16.50;75.90;;;;;;8389409;28;20433;-78
2021/11/09 11:08:00;;;;;;;10.17;3.70;;;16.00;75.70;;;;;;8363377;28;20480;-77
2021/11/09 11:12:09;;;;;;;5.70;3.00;;;15.80;76.70;;;;;;8368699;28;20467;-77
2021/11/09 11:16:13;;;;;;;5.70;2.60;;;15.80;76.50;;;;;;8382809;28;21050;-77
2021/11/09 11:20:14;;;;;;;4.73;3.40;;;15.80;76.70;;;;;;8387163;28;20471;-76
2021/11/09 11:24:17;;;;;;;8.03;3.57;;;15.80;76.20;;;;;;8389052;28;20453;-77
2021/11/09 11:28:19;;;;;;;4.90;3.27;;;15.80;76.30;;;;;;8390912;28;20443;-76
2021/11/09 11:32:22;;;;;;;5.37;2.80;;;15.70;76.20;;;;;;8358581;28;21195;-78
2021/11/09 11:36:24;;;;;;;6.13;2.50;;;15.70;74.70;;;;;;8361688;28;20442;-77
2021/11/09 11:40:24;;;;;;;4.97;2.80;;;15.70;74.50;;;;;;8378204;28;20504;-77
2021/11/09 11:44:27;;;;;;;8.83;2.83;;;15.50;74.00;;;;;;8377810;28;20803;-77
2021/11/09 11:48:28;;;;;;;7.43;3.53;;;15.40;75.40;;;;;;8381809;28;20183;-76
2021/11/09 11:52:32;;;;;;;8.40;4.13;;;15.40;75.70;;;;;;8394715;28;21127;-77
2021/11/09 11:56:43;;;;;;;8.33;3.37;;;15.40;75.00;;;;;;8390337;28;20475;-78
2021/11/09 12:00:52;;;;;;;14.57;3.77;;;15.30;75.60;;;;;;8378395;28;20933;-78
2021/11/09 12:04:54;;;;;;;10.27;3.43;;;15.40;75.50;;;;;;8356046;28;20560;-77
2021/11/09 12:08:56;;;;;;;6.30;3.10;;;15.50;75.50;;;;;;8367933;28;20440;-78
2021/11/09 12:13:03;;;;;;;5.10;2.47;;;15.70;75.30;;;;;;8370196;28;20486;-77
2021/11/09 12:17:05;;;;;;;7.73;3.40;;;15.80;74.00;;;;;;8346808;28;20572;-77
2021/11/09 12:21:18;;;;;;;2.63;1.80;;;15.80;73.20;;;;;;8348510;28;20532;-76
2021/11/09 12:25:21;;;;;;;6.23;5.30;;;15.80;72.90;;;;;;8384941;28;20453;-77
2021/11/09 12:29:48;;;;;;;6.40;2.27;;;15.70;72.00;;;;;;8372499;28;21016;-76
2021/11/09 12:33:50;;;;;;;2.80;1.93;;;15.50;71.80;;;;;;8353463;28;20445;-77
2021/11/09 12:38:03;;;;;;;3.23;1.90;;;15.50;71.30;;;;;;8375388;28;20825;-76
2021/11/09 12:42:04;;;;;;;4.13;2.07;;;15.50;70.70;;;;;;8377636;28;20531;-77
2021/11/09 12:46:22;;;;;;;3.57;1.90;;;15.60;70.60;;;;;;8360032;28;20951;-77
2021/11/09 12:50:23;;;;;;;3.70;2.00;;;15.60;69.40;;;;;;8375453;28;20676;-76
2021/11/09 12:54:27;;;;;;;3.90;1.87;;;15.60;68.90;;;;;;8380162;28;20436;-77
2021/11/09 12:58:32;;;;;;;4.63;2.70;;;15.60;69.30;;;;;;8370858;28;21243;-77
2021/11/09 13:02:40;;;;;;;1.60;1.50;;;15.50;69.10;;;;;;8360320;28;20468;-78
2021/11/09 13:10:58;;;;;;;1.83;1.73;;;15.40;69.80;;;;;;8354353;28;21252;-78
2021/11/09 13:15:13;;;;;;;6.03;2.53;;;15.30;70.80;;;;;;8357556;28;20865;-77
2021/11/09 13:19:16;;;;;;;2.23;2.00;;;15.10;70.20;;;;;;8361515;28;20433;-78
2021/11/09 13:23:20;;;;;;;3.73;2.30;;;14.90;70.70;;;;;;8365692;28;20477;-77
2021/11/09 13:27:37;;;;;;;8.10;2.67;;;14.80;71.70;;;;;;8343438;28;20476;-78
2021/11/09 13:31:38;;;;;;;4.27;2.63;;;14.80;71.90;;;;;;8359142;28;20461;-78
2021/11/09 13:35:43;;;;;;;2.80;2.10;;;14.70;71.90;;;;;;8336028;28;20448;-78
2021/11/09 13:40:03;;;;;;;2.80;2.60;;;14.70;72.90;;;;;;8352715;28;20186;-80
2021/11/09 13:44:10;;;;;;;16.17;3.40;;;14.70;73.40;;;;;;3546235;28;10024324;-77
2021/11/09 13:48:17;;;;;;;7.70;2.87;;;14.60;72.90;;;;;;8345216;28;20237;-77
2021/11/09 13:52:17;;;;;;;2.30;2.10;;;14.50;73.90;;;;;;8359939;28;20638;-77
2021/11/09 13:56:23;;;;;;;9.93;3.30;;;14.50;74.10;;;;;;8363277;28;20452;-78
2021/11/09 14:00:24;;;;;;;4.30;2.40;;;14.50;74.40;;;;;;8341400;28;20263;-78
2021/11/09 14:17:15;;;;;;;17.17;5.77;;;14.20;75.90;;;;;;8359743;28;20440;-77
2021/11/09 14:21:16;;;;;;;7.67;4.67;;;14.10;76.60;;;;;;8350119;28;20541;-79
2021/11/09 14:25:17;;;;;;;5.97;3.33;;;14.00;76.40;;;;;;8361795;28;20532;-77
2021/11/09 14:29:23;;;;;;;14.07;5.43;;;13.90;76.60;;;;;;8346132;28;20193;-78
2021/11/09 14:33:23;;;;;;;16.17;8.30;;;13.80;77.10;;;;;;8358356;28;20222;-76
2021/11/09 14:37:27;;;;;;;18.60;9.27;;;13.70;77.70;;;;;;8362976;28;20447;-76
2021/11/09 14:41:36;;;;;;;3.80;2.70;;;13.60;78.20;;;;;;8342121;28;20198;-76
2021/11/09 14:49:55;;;;;;;8.80;3.83;;;13.50;78.90;;;;;;8364458;28;20950;-76
2021/11/09 14:53:59;;;;;;;18.27;4.87;;;13.40;79.40;;;;;;8353068;28;20542;-76
2021/11/09 14:58:00;;;;;;;8.17;5.33;;;13.40;79.90;;;;;;8354747;28;20459;-77
2021/11/09 15:02:03;;;;;;;8.83;3.97;;;13.30;80.20;;;;;;8356354;28;20465;-77
2021/11/09 15:06:13;;;;;;;8.30;3.70;;;13.20;80.50;;;;;;8375756;28;20236;-75
2021/11/09 15:10:36;;;;;;;11.40;3.57;;;13.10;80.30;;;;;;8375133;28;21481;-76
2021/11/09 15:31:57;;;;;;;3.40;3.07;;;12.60;82.10;;;;;;8373312;28;20947;-79
2021/11/09 15:36:25;;;;;;;3.70;3.40;;;12.50;82.10;;;;;;8375467;28;20604;-76
2021/11/09 15:40:26;;;;;;;4.23;3.00;;;12.40;82.50;;;;;;8365989;28;20445;-78
2021/11/09 15:44:28;;;;;;;5.43;2.60;;;12.30;82.90;;;;;;8381607;28;20438;-77
2021/11/09 15:48:29;;;;;;;5.97;3.13;;;12.20;83.10;;;;;;8348052;28;20191;-77
2021/11/09 15:52:30;;;;;;;3.07;2.83;;;12.00;83.30;;;;;;8369617;28;20501;-77
2021/11/09 15:56:31;;;;;;;7.70;2.77;;;12.00;83.60;;;;;;8350698;28;20785;-77
2021/11/09 16:00:32;;;;;;;3.57;2.30;;;11.80;83.80;;;;;;8366627;28;20202;-76
2021/11/09 16:04:39;;;;;;;6.90;3.37;;;11.70;84.10;;;;;;8385324;28;20694;-77
2021/11/09 16:08:40;;;;;;;3.87;3.10;;;11.60;84.40;;;;;;8367808;28;20433;-77
2021/11/09 16:12:41;;;;;;;6.47;2.50;;;11.50;84.70;;;;;;8376424;28;20534;-77
2021/11/09 16:16:42;;;;;;;6.93;3.10;;;11.30;84.90;;;;;;8336919;28;20980;-77
2021/11/09 16:20:44;;;;;;;29.30;10.67;;;11.30;85.20;;;;;;8361863;28;20699;-76
2021/11/09 16:24:45;;;;;;;8.17;5.20;;;11.40;85.10;;;;;;8362285;28;20653;-76
2021/11/09 16:28:45;;;;;;;9.13;4.97;;;11.30;85.10;;;;;;8349604;28;20441;-79
2021/11/09 16:32:50;;;;;;;6.33;5.20;;;11.30;85.10;;;;;;8375599;28;20301;-78
2021/11/09 16:36:50;;;;;;;15.27;5.13;;;11.20;85.30;;;;;;8373083;28;20207;-77
2021/11/09 16:40:54;;;;;;;12.20;4.53;;;11.20;85.70;;;;;;8357322;28;20440;-76
2021/11/09 16:44:54;;;;;;;6.53;4.90;;;11.10;86.10;;;;;;8377065;28;20189;-75
2021/11/09 16:53:12;;;;;;;10.20;5.07;;;10.90;87.00;;;;;;8348770;28;20207;-77
2021/11/09 17:01:38;;;;;;;12.07;7.47;;;10.60;88.40;;;;;;8349299;28;20445;-76
2021/11/09 18:23:01;;;;;;;10.10;6.97;;;8.00;93.30;;;;;;8353713;28;20465;-76
2021/11/09 18:27:02;;;;;;;4.90;4.40;;;7.90;93.50;;;;;;8349367;28;21337;-77
2021/11/09 18:31:03;;;;;;;9.27;6.03;;;7.80;93.60;;;;;;8337864;28;20494;-78
2021/11/09 18:35:09;;;;;;;9.80;5.83;;;7.80;93.60;;;;;;8353269;28;21091;-77
2021/11/09 18:39:09;;;;;;;19.53;7.30;;;7.70;93.70;;;;;;8335766;28;20279;-76
2021/11/09 18:43:14;;;;;;;15.90;7.57;;;7.70;93.90;;;;;;8355108;28;20506;-76
2021/11/09 18:47:15;;;;;;;10.27;7.10;;;7.60;94.00;;;;;;8335221;28;20209;-77
2021/11/09 18:51:15;;;;;;;14.40;6.37;;;7.50;94.00;;;;;;8338439;28;20520;-76
2021/11/09 18:55:16;;;;;;;9.63;6.63;;;7.50;94.00;;;;;;8349671;28;20224;-79
2021/11/09 18:59:22;;;;;;;9.90;6.97;;;7.50;94.00;;;;;;8348948;28;20205;-76
2021/11/09 19:03:23;;;;;;;17.27;6.63;;;7.50;94.10;;;;;;8334189;28;20475;-77
2021/11/09 19:07:24;;;;;;;12.30;5.67;;;7.40;94.20;;;;;;8355066;28;20438;-79
2021/11/09 19:11:24;;;;;;;10.70;6.03;;;7.40;94.30;;;;;;8353377;28;20214;-78
2021/11/09 19:15:38;;;;;;;15.00;6.70;;;7.40;94.40;;;;;;8367861;28;20245;-80
2021/11/09 19:19:42;;;;;;;10.90;7.10;;;7.30;94.40;;;;;;8364545;28;20187;-78
2021/11/09 19:23:43;;;;;;;18.63;6.93;;;7.30;94.40;;;;;;8346525;28;20436;-78
2021/11/09 19:27:45;;;;;;;13.10;7.67;;;7.30;94.40;;;;;;8364806;28;20528;-78
2021/11/09 19:31:47;;;;;;;13.17;7.13;;;7.30;94.30;;;;;;8347863;28;20220;-78
2021/11/09 19:35:49;;;;;;;13.27;7.07;;;7.30;94.30;;;;;;8351435;28;21263;-78
2021/11/09 19:39:50;;;;;;;17.97;8.70;;;7.30;94.20;;;;;;8355407;28;20449;-77
2021/11/09 19:43:53;;;;;;;9.90;6.20;;;7.30;94.20;;;;;;8351524;28;20448;-78
2021/11/09 19:47:57;;;;;;;8.60;5.67;;;7.20;94.30;;;;;;8363771;28;20294;-77
2021/11/09 19:51:58;;;;;;;8.90;5.90;;;7.20;94.40;;;;;;8357381;28;20468;-78
2021/11/09 19:56:00;;;;;;;11.70;7.50;;;7.10;94.50;;;;;;8371175;28;20441;-78
2021/11/09 20:00:01;;;;;;;10.87;7.47;;;7.10;94.60;;;;;;8372449;28;20215;-78
2021/11/09 20:04:02;;;;;;;20.57;8.03;;;7.00;94.70;;;;;;8368957;28;20484;-78
2021/11/09 20:08:03;;;;;;;8.80;5.93;;;6.90;94.90;;;;;;8357625;28;20439;-79
2021/11/09 20:12:04;;;;;;;14.07;9.23;;;6.80;94.80;;;;;;8352125;28;20481;-79
2021/11/09 20:16:13;;;;;;;18.70;10.60;;;6.60;95.10;;;;;;8364016;28;20373;-76
2021/11/09 20:20:14;;;;;;;22.67;10.10;;;6.60;95.20;;;;;;8346713;28;21458;-79
2021/11/09 20:24:15;;;;;;;13.00;8.40;;;6.50;95.40;;;;;;8370897;28;20437;-77
2021/11/09 20:28:21;;;;;;;19.73;8.93;;;6.40;95.60;;;;;;8366443;28;20441;-78
2021/11/09 20:32:22;;;;;;;10.90;7.43;;;6.30;95.70;;;;;;8345829;28;20199;-78
2021/11/09 20:36:22;;;;;;;16.57;8.33;;;6.20;95.70;;;;;;8364110;28;20441;-78
2021/11/09 20:40:24;;;;;;;13.67;6.97;;;6.20;96.00;;;;;;8358864;28;20197;-78
2021/11/09 20:44:25;;;;;;;12.23;6.03;;;6.10;96.10;;;;;;8372881;28;20188;-77
2021/11/09 20:48:26;;;;;;;10.17;7.70;;;6.00;96.10;;;;;;8362845;28;20440;-78
2021/11/09 20:52:27;;;;;;;14.37;6.80;;;5.90;96.30;;;;;;8361338;28;20225;-79
2021/11/09 20:56:27;;;;;;;9.40;7.30;;;5.80;96.30;;;;;;8384174;28;20957;-78
2021/11/09 21:00:28;;;;;;;14.60;7.60;;;5.70;96.40;;;;;;8379494;28;20217;-79
2021/11/09 21:04:29;;;;;;;9.80;6.60;;;5.70;96.70;;;;;;8394865;28;20269;-77
2021/11/09 21:08:30;;;;;;;10.07;6.80;;;5.60;96.50;;;;;;8386962;28;20537;-79
2021/11/09 21:12:45;;;;;;;12.20;8.10;;;5.50;96.50;;;;;;8372667;28;20233;-77
2021/11/09 21:21:11;;;;;;;16.80;8.97;;;5.30;96.60;;;;;;8377868;28;20471;-77
2021/11/09 21:25:12;;;;;;;19.10;8.70;;;5.20;96.90;;;;;;8385412;28;20441;-77
2021/11/09 21:35:09;;;;;;;11.07;8.37;;;5.10;96.90;;;;;;8398148;28;20242;-78
2021/11/09 21:37:45;;;;;;;13.30;8.10;;;5.10;96.90;;;;;;8379929;28;21015;-80
2021/11/09 21:41:49;;;;;;;13.30;9.03;;;5.00;97.00;;;;;;8367597;28;20456;-80
2021/11/09 21:45:51;;;;;;;13.00;7.57;;;5.00;97.10;;;;;;8370422;28;20938;-78
2021/11/09 21:49:52;;;;;;;18.90;9.50;;;4.90;97.10;;;;;;8396877;28;21151;-79
2021/11/09 21:53:53;;;;;;;12.77;7.60;;;4.80;97.10;;;;;;8392067;28;20432;-79
2021/11/09 21:57:55;;;;;;;14.20;9.43;;;4.80;97.20;;;;;;8391215;28;20540;-78
2021/11/09 22:02:00;;;;;;;22.23;10.80;;;4.70;97.10;;;;;;8388624;28;20482;-78
2021/11/09 22:06:04;;;;;;;20.10;11.67;;;4.60;97.30;;;;;;8391685;28;20903;-77
2021/11/09 22:10:07;;;;;;;13.37;9.20;;;4.60;97.30;;;;;;8365976;28;20663;-78
2021/11/09 22:14:08;;;;;;;30.43;12.00;;;4.60;97.30;;;;;;8340301;28;20190;-77
2021/11/09 22:18:08;;;;;;;23.80;12.20;;;4.60;97.30;;;;;;8364819;28;20449;-78
2021/11/09 22:22:09;;;;;;;23.90;11.10;;;4.50;97.30;;;;;;8382859;28;20451;-80
2021/11/09 22:26:10;;;;;;;20.23;11.00;;;4.50;97.30;;;;;;8379505;28;20193;-77
2021/11/09 22:30:12;;;;;;;18.97;11.27;;;4.40;97.30;;;;;;8374518;28;20292;-78
2021/11/09 22:34:13;;;;;;;26.40;12.20;;;4.50;97.60;;;;;;8359206;28;20181;-77
2021/11/09 22:38:15;;;;;;;32.90;12.27;;;4.40;97.80;;;;;;8376355;28;20767;-78
2021/11/09 22:42:16;;;;;;;15.80;7.97;;;4.40;97.70;;;;;;8369529;28;20194;-78
2021/11/09 22:46:18;;;;;;;20.10;9.40;;;4.40;97.70;;;;;;8359080;28;20460;-77
2021/11/09 22:50:21;;;;;;;16.07;8.00;;;4.40;97.70;;;;;;8359525;28;20217;-79
2021/11/09 22:54:23;;;;;;;13.53;6.60;;;4.40;97.70;;;;;;8385673;28;20444;-76
2021/11/09 22:58:24;;;;;;;16.70;8.80;;;4.40;97.60;;;;;;8380243;28;20466;-78
2021/11/09 23:02:25;;;;;;;16.50;6.47;;;4.40;97.70;;;;;;8372855;28;20483;-78
2021/11/09 23:06:27;;;;;;;11.87;7.30;;;4.40;97.70;;;;;;8373971;28;21392;-79
2021/11/09 23:10:29;;;;;;;9.70;6.20;;;4.30;97.70;;;;;;8383363;28;20537;-77
2021/11/09 23:14:32;;;;;;;7.00;5.53;;;4.30;97.80;;;;;;8368753;28;20482;-78
2021/11/09 23:18:33;;;;;;;7.17;5.67;;;4.30;97.90;;;;;;8382230;28;20457;-76
2021/11/09 23:22:41;;;;;;;8.30;5.93;;;4.20;98.00;;;;;;8374543;28;20443;-78
2021/11/09 23:26:45;;;;;;;9.77;6.00;;;4.20;98.00;;;;;;8371512;28;20771;-79
2021/11/09 23:30:52;;;;;;;8.63;5.10;;;4.20;98.10;;;;;;8363540;28;20476;-77
2021/11/09 23:34:52;;;;;;;6.60;5.17;;;4.10;98.10;;;;;;8353398;28;20807;-77
2021/11/09 23:38:53;;;;;;;8.53;6.07;;;4.10;98.10;;;;;;8381572;28;20451;-76
2021/11/09 23:42:55;;;;;;;9.17;6.43;;;4.10;98.20;;;;;;8355216;28;20192;-79
2021/11/09 23:46:56;;;;;;;10.70;6.53;;;4.10;98.40;;;;;;8355825;28;20782;-78
2021/11/09 23:51:01;;;;;;;12.40;6.10;;;4.10;98.40;;;;;;8370749;28;20480;-78
2021/11/09 23:55:05;;;;;;;8.97;4.90;;;4.10;98.30;;;;;;8362974;28;21132;-78
2021/11/09 23:59:06;;;;;;;13.33;5.53;;;4.10;98.30;;;;;;8372725;28;20474;-77
